Time;durP1;ratioP1;P1;durP2;ratioP2;P2;SDS_P1;SDS_P2;PMS_P1;PMS_P2;Temp;Humidity;BMP_temperature;BMP_pressure;BME280_temperature;BME280_humidity;BME280_pressure;Samples;Min_cycle;Max_cycle;Signal;HPM_P1;HPM_P2
2022/09/23 00:00:27;;;;;;;;;11.25;10.25;;;;;18.62;41.71;101191.75;2078933;28;47618;-64
2022/09/23 00:01:27;;;;;;;;;12.00;12.00;;;;;18.63;41.66;101189.94;2069449;28;47081;-65
2022/09/23 00:02:27;;;;;;;;;13.75;12.00;;;;;18.62;41.79;101189.06;2069030;28;46749;-63
2022/09/23 00:03:30;;;;;;;;;11.75;11.00;;;;;18.63;41.50;101190.81;2075428;28;47828;-64
2022/09/23 00:04:30;;;;;;;;;10.00;10.00;;;;;18.63;41.42;101190.81;2079820;28;47618;-64
2022/09/23 00:05:31;;;;;;;;;13.25;12.75;;;;;18.64;41.66;101194.41;2078294;28;47574;-64
2022/09/23 00:06:32;;;;;;;;;8.80;8.80;;;;;18.64;41.44;101186.34;2071579;28;47564;-66
2022/09/23 00:07:33;;;;;;;;;9.50;9.50;;;;;18.65;41.55;101188.97;2075954;28;47642;-67
2022/09/23 00:08:34;;;;;;;;;11.60;11.00;;;;;18.64;41.57;101189.91;2080024;28;47512;-65
2022/09/23 00:09:34;;;;;;;;;13.00;11.75;;;;;18.65;41.68;101186.28;2077624;28;47736;-65
2022/09/23 00:10:37;;;;;;;;;11.75;11.75;;;;;18.65;41.66;101182.72;2071564;28;47816;-64
2022/09/23 00:11:38;;;;;;;;;15.20;14.40;;;;;18.65;42.15;101182.72;2069277;28;47372;-64
2022/09/23 00:12:38;;;;;;;;;12.00;12.00;;;;;18.65;41.63;101178.19;2071414;28;46034;-64
2022/09/23 00:13:41;;;;;;;;;10.00;10.00;;;;;18.66;41.71;101181.75;2077823;28;47237;-64
2022/09/23 00:14:41;;;;;;;;;13.40;13.40;;;;;18.65;41.70;101183.59;2081008;28;47894;-65
2022/09/23 00:15:42;;;;;;;;;13.00;13.00;;;;;18.66;41.64;101179.94;2078009;28;47963;-66
2022/09/23 00:16:42;;;;;;;;;11.00;9.75;;;;;18.65;41.87;101178.19;2079768;28;47322;-65
2022/09/23 00:17:43;;;;;;;;;13.50;13.50;;;;;18.66;41.58;101173.69;2061391;28;47797;-65
2022/09/23 00:18:44;;;;;;;;;13.80;12.40;;;;;18.65;41.27;101177.34;2062912;28;47886;-65
2022/09/23 00:19:44;;;;;;;;;12.00;12.00;;;;;18.65;41.66;101175.50;2077501;28;47885;-65
2022/09/23 00:20:45;;;;;;;;;13.25;12.00;;;;;18.66;41.54;101173.69;2079535;28;47890;-65
2022/09/23 00:21:45;;;;;;;;;14.75;14.00;;;;;18.65;41.49;101175.50;2078734;28;46376;-65
2022/09/23 00:22:46;;;;;;;;;11.75;11.00;;;;;18.64;41.88;101173.78;2070751;28;47275;-65
2022/09/23 00:23:47;;;;;;;;;16.50;15.25;;;;;18.64;41.48;101165.72;2069780;28;47687;-64
2022/09/23 00:24:48;;;;;;;;;14.80;11.20;;;;;18.64;41.32;101171.09;2078636;28;47547;-65
2022/09/23 00:25:56;;;;;;;;;15.00;13.75;;;;;18.66;41.67;101163.81;2079048;28;47187;-64
2022/09/23 00:26:58;;;;;;;;;13.20;13.20;;;;;18.65;41.59;101161.19;2078132;28;47764;-64
2022/09/23 00:27:58;;;;;;;;;13.20;12.60;;;;;18.64;41.65;101163.03;2075668;28;47635;-64
2022/09/23 00:28:59;;;;;;;;;14.25;14.25;;;;;18.64;41.86;101170.22;2072120;28;47805;-64
2022/09/23 00:30:00;;;;;;;;;13.75;12.75;;;;;18.62;41.90;101161.31;2079532;28;47616;-64
2022/09/23 00:31:03;;;;;;;;;13.80;13.80;;;;;18.62;41.44;101164.00;2078552;28;47944;-64
2022/09/23 00:32:04;;;;;;;;;11.80;10.80;;;;;18.61;41.53;101167.66;2061935;28;45239;-64
2022/09/23 00:33:04;;;;;;;;;10.75;10.75;;;;;18.60;41.60;101166.78;2064846;28;47633;-64
2022/09/23 00:34:05;;;;;;;;;10.50;10.25;;;;;18.59;41.73;101165.03;2078645;28;47061;-65
2022/09/23 00:35:07;;;;;;;;;9.25;9.25;;;;;18.59;41.77;101166.84;2075916;28;48228;-65
2022/09/23 00:36:11;;;;;;;;;11.00;11.00;;;;;18.57;41.71;101161.56;2070354;28;48246;-64
2022/09/23 00:37:12;;;;;;;;;11.40;11.40;;;;;18.56;41.82;101157.13;2069970;28;47650;-66
2022/09/23 00:38:13;;;;;;;;;12.50;10.75;;;;;18.56;41.70;101153.56;2079603;28;47348;-66
2022/09/23 00:39:13;;;;;;;;;11.40;11.40;;;;;18.55;41.88;101155.38;2078164;28;47331;-65
2022/09/23 00:40:14;;;;;;;;;12.00;11.00;;;;;18.54;41.93;101149.09;2053687;28;47419;-64
2022/09/23 00:41:14;;;;;;;;;12.50;12.50;;;;;18.54;41.75;101150.94;2052603;28;47412;-65
2022/09/23 00:42:19;;;;;;;;;11.50;10.75;;;;;18.53;41.86;101150.06;2043949;28;47017;-65
2022/09/23 00:43:35;;;;;;;;;10.00;9.60;;;;;18.53;41.75;101149.19;2046791;28;47981;-65
2022/09/23 00:44:59;;;;;;;;;10.80;10.60;;;;;18.53;41.62;101142.00;2044023;28;47124;-65
2022/09/23 00:45:59;;;;;;;;;10.80;8.40;;;;;18.54;41.65;101142.88;2022329;29;48558;-66
2022/09/23 00:47:00;;;;;;;;;8.25;8.25;;;;;18.53;41.72;101141.13;2021024;29;46545;-65
2022/09/23 00:48:02;;;;;;;;;10.25;10.25;;;;;18.53;41.79;101144.69;2022157;29;48074;-64
2022/09/23 00:49:14;;;;;;;;;9.00;9.00;;;;;18.52;41.84;101153.69;2022304;29;48225;-65
2022/09/23 00:50:24;;;;;;;;;11.00;11.00;;;;;18.51;41.71;101143.88;2016687;29;47822;-65
2022/09/23 00:51:32;;;;;;;;;13.60;11.60;;;;;18.50;41.74;101144.84;2012243;29;48177;-65
2022/09/23 00:52:32;;;;;;;;;12.20;11.20;;;;;18.48;41.98;101149.41;2015641;29;46013;-66
2022/09/23 00:53:33;;;;;;;;;10.25;10.00;;;;;18.49;41.92;101147.59;2024824;29;48147;-65
2022/09/23 00:54:34;;;;;;;;;10.20;9.00;;;;;18.48;41.72;101149.41;2018625;29;47830;-64
2022/09/23 00:55:41;;;;;;;;;10.75;9.75;;;;;18.49;41.97;101147.59;2021009;29;47581;-65
2022/09/23 00:56:42;;;;;;;;;10.80;9.20;;;;;18.49;41.92;101151.16;2022337;29;47621;-65
2022/09/23 00:57:44;;;;;;;;;12.00;12.00;;;;;18.48;42.03;101145.88;2022742;29;47886;-65
2022/09/23 00:58:47;;;;;;;;;8.40;8.40;;;;;18.48;42.07;101146.72;2024458;29;47931;-64
2022/09/23 00:59:49;;;;;;;;;7.60;7.60;;;;;18.48;42.12;101145.88;2024412;29;45905;-66
2022/09/23 01:00:50;;;;;;;;;8.20;8.20;;;;;18.47;41.94;101145.00;2024435;29;47349;-67
2022/09/23 01:01:54;;;;;;;;;10.00;9.25;;;;;18.47;42.07;101145.00;2026064;29;48228;-64
2022/09/23 01:02:55;;;;;;;;;10.00;10.00;;;;;18.46;41.85;101145.94;2021239;29;47484;-64
2022/09/23 01:03:56;;;;;;;;;8.25;8.25;;;;;18.47;41.85;101146.81;2021813;29;47735;-66
2022/09/23 01:04:57;;;;;;;;;11.00;9.80;;;;;18.47;41.88;101149.50;2021861;29;47534;-65
2022/09/23 01:05:58;;;;;;;;;11.40;10.00;;;;;18.46;42.06;101151.31;2024701;29;47502;-65
2022/09/23 01:06:58;;;;;;;;;9.00;9.00;;;;;18.46;42.12;101145.94;2021049;29;48390;-64
2022/09/23 01:08:01;;;;;;;;;10.00;7.75;;;;;18.46;42.29;101148.63;2022052;29;47515;-65
2022/09/23 01:09:02;;;;;;;;;12.00;12.00;;;;;18.46;42.18;101148.63;2021476;29;48001;-65
2022/09/23 01:10:04;;;;;;;;;11.25;11.00;;;;;18.45;42.19;101146.88;2022555;29;48041;-65
2022/09/23 01:11:13;;;;;;;;;10.80;10.60;;;;;18.45;42.21;101148.69;2020771;29;47564;-64
2022/09/23 01:12:35;;;;;;;;;11.40;10.60;;;;;18.44;42.43;101147.84;2028105;29;47156;-65
2022/09/23 01:13:38;;;;;;;;;10.00;10.00;;;;;18.43;42.41;101145.22;2029362;28;47969;-64
2022/09/23 01:14:51;;;;;;;;;11.60;11.40;;;;;18.42;42.40;101138.06;2052002;28;47290;-65
2022/09/23 01:16:01;;;;;;;;;10.80;9.80;;;;;18.41;42.33;101144.41;2053875;28;47323;-65
2022/09/23 01:17:26;;;;;;;;;11.20;11.00;;;;;18.39;42.45;101148.97;2052137;28;47548;-64
2022/09/23 01:18:53;;;;;;;;;11.60;9.60;;;;;18.39;42.37;101146.28;2046110;28;47974;-65
2022/09/23 01:20:12;;;;;;;;;10.00;10.00;;;;;18.38;42.32;101150.78;2052383;28;47954;-65
2022/09/23 01:21:35;;;;;;;;;14.00;11.20;;;;;18.36;42.68;101147.31;2052867;28;47677;-64
2022/09/23 01:23:02;;;;;;;;;13.00;13.00;;;;;18.37;42.57;101145.50;2055883;28;47078;-65
2022/09/23 01:24:23;;;;;;;;;11.40;11.40;;;;;18.34;42.68;101143.84;2073127;28;47870;-64
2022/09/23 01:25:49;;;;;;;;;11.40;9.60;;;;;18.32;42.55;101137.66;2077676;28;45709;-65
2022/09/23 01:27:27;;;;;;;;;14.20;12.20;;;;;18.30;42.48;101138.69;2073179;28;47494;-66
2022/09/23 01:28:32;;;;;;;;;12.20;12.00;;;;;18.29;42.60;101134.22;2078894;28;47370;-68
2022/09/23 01:30:10;;;;;;;;;13.60;12.40;;;;;18.27;42.87;101128.06;2076828;28;47390;-64
2022/09/23 01:31:16;;;;;;;;;9.80;9.80;;;;;18.26;42.76;101129.88;2073523;28;48301;-66
2022/09/23 01:32:25;;;;;;;;;10.80;10.80;;;;;18.25;42.98;101128.13;2073101;28;47841;-66
2022/09/23 01:33:53;;;;;;;;;10.20;10.20;;;;;18.24;42.93;101127.25;2074619;28;47822;-65
2022/09/23 01:34:53;;;;;;;;;12.40;11.20;;;;;18.23;43.19;101122.84;2078048;28;48246;-64
2022/09/23 01:35:54;;;;;;;;;12.00;12.00;;;;;18.23;43.04;101117.47;2078652;28;47595;-64
2022/09/23 01:37:06;;;;;;;;;12.25;12.25;;;;;18.24;43.14;101121.03;2078225;28;47578;-65
2022/09/23 01:38:21;;;;;;;;;12.80;9.60;;;;;18.23;43.03;101124.66;2073404;28;47323;-64
2022/09/23 01:39:36;;;;;;;;;15.60;14.80;;;;;18.22;43.22;101118.41;2076811;28;47797;-64
2022/09/23 01:40:46;;;;;;;;;11.80;11.80;;;;;18.22;43.21;101112.16;2072627;28;47791;-64
2022/09/23 01:42:12;;;;;;;;;11.80;10.80;;;;;18.23;43.40;101111.22;2076064;28;47605;-64
2022/09/23 01:43:22;;;;;;;;;9.80;9.80;;;;;18.21;43.32;101103.25;2064861;28;48126;-64
2022/09/23 01:44:33;;;;;;;;;11.40;11.40;;;;;18.21;43.23;101107.75;2065764;28;48027;-65
2022/09/23 01:45:46;;;;;;;;;12.00;12.00;;;;;18.19;43.23;101105.13;2075772;28;47448;-65
2022/09/23 01:46:49;;;;;;;;;10.20;10.20;;;;;18.19;43.43;101106.94;2070831;28;47506;-64
2022/09/23 01:48:09;;;;;;;;;12.40;11.60;;;;;18.18;43.29;101105.19;2078019;28;47900;-65
2022/09/23 01:49:18;;;;;;;;;12.80;12.80;;;;;18.17;43.43;101112.41;2077787;28;47809;-64
2022/09/23 01:52:08;;;;;;;;;14.00;12.60;;;;;18.15;43.57;101119.63;2048028;28;48571;-64
2022/09/23 01:53:20;;;;;;;;;10.80;10.80;;;;;18.15;42.93;101111.56;2071009;28;47938;-65
2022/09/23 01:54:33;;;;;;;;;12.40;11.20;;;;;18.15;43.61;101116.06;2070080;28;48381;-65
2022/09/23 01:55:39;;;;;;;;;11.40;11.40;;;;;18.15;43.52;101110.69;2069598;28;47740;-64
2022/09/23 01:56:57;;;;;;;;;10.60;10.60;;;;;18.14;43.23;101120.56;2086223;28;45710;-65
2022/09/23 01:58:14;;;;;;;;;10.80;10.20;;;;;18.14;43.31;101117.88;2077820;28;46052;-65
2022/09/23 01:59:42;;;;;;;;;6.40;6.40;;;;;18.13;43.39;101118.81;2078988;28;47494;-63
2022/09/23 02:00:51;;;;;;;;;13.20;12.40;;;;;18.14;43.47;101119.69;2074500;28;47470;-65
2022/09/23 02:02:02;;;;;;;;;8.60;7.80;;;;;18.11;43.81;101118.03;2078312;28;48327;-64
2022/09/23 02:03:14;;;;;;;;;14.00;13.00;;;;;18.11;43.51;101126.09;2059798;28;47857;-65
2022/09/23 02:04:29;;;;;;;;;12.20;12.20;;;;;18.10;43.78;101124.34;2063503;28;45830;-64
2022/09/23 02:05:38;;;;;;;;;12.80;12.80;;;;;18.08;43.87;101126.25;2077288;28;47837;-65
2022/09/23 02:06:46;;;;;;;;;13.20;13.20;;;;;18.07;43.99;101118.25;2072240;28;48199;-66
2022/09/23 02:08:16;;;;;;;;;11.20;11.20;;;;;18.07;43.78;101127.19;2079305;28;47778;-66
2022/09/23 02:09:25;;;;;;;;;13.80;11.40;;;;;18.08;43.95;101126.25;2078862;28;47147;-67
2022/09/23 02:11:07;;;;;;;;;14.60;13.20;;;;;18.07;43.97;101118.25;2079681;28;47440;-65
2022/09/23 02:12:15;;;;;;;;;12.80;11.80;;;;;18.07;44.08;101118.25;2070662;28;47577;-66
2022/09/23 02:13:28;;;;;;;;;13.40;13.40;;;;;18.06;44.24;101116.53;2068245;28;47817;-65
2022/09/23 02:15:02;;;;;;;;;12.40;12.40;;;;;18.06;44.11;101117.38;2070901;28;47215;-64
2022/09/23 02:16:09;;;;;;;;;12.40;12.40;;;;;18.06;44.07;101116.53;2043349;28;48231;-63
2022/09/23 02:17:15;;;;;;;;;12.20;12.20;;;;;18.05;43.99;101112.97;2046366;28;47473;-67
2022/09/23 02:18:20;;;;;;;;;14.60;13.40;;;;;18.05;44.26;101112.09;2054610;28;47934;-64
2022/09/23 02:19:40;;;;;;;;;11.80;10.80;;;;;18.05;44.33;101112.97;2037742;28;48032;-66
2022/09/23 02:20:42;;;;;;;;;14.80;13.60;;;;;18.06;44.36;101112.03;2036227;28;47703;-66
2022/09/23 02:21:47;;;;;;;;;12.80;12.80;;;;;18.07;44.32;101110.19;2052016;28;48492;-65
2022/09/23 02:23:13;;;;;;;;;12.00;11.80;;;;;18.07;44.32;101112.88;2053850;28;47540;-66
2022/09/23 02:24:19;;;;;;;;;11.40;11.40;;;;;18.07;44.44;101118.25;2053219;28;48035;-65
2022/09/23 02:25:27;;;;;;;;;13.00;13.00;;;;;18.05;44.25;101121.03;2053709;28;46745;-66
2022/09/23 02:26:36;;;;;;;;;13.00;11.20;;;;;18.04;44.39;101118.38;2054939;28;47159;-64
2022/09/23 02:27:50;;;;;;;;;15.60;15.00;;;;;18.03;44.40;101122.00;2052425;28;47224;-65
2022/09/23 02:28:57;;;;;;;;;12.60;12.60;;;;;18.02;44.34;101126.50;2054247;28;45706;-66
2022/09/23 02:30:14;;;;;;;;;12.60;12.20;;;;;18.01;44.46;101121.22;2056865;28;47811;-65
2022/09/23 02:31:29;;;;;;;;;13.60;13.00;;;;;18.00;44.60;101109.59;2053237;28;47983;-65
2022/09/23 02:32:47;;;;;;;;;13.00;13.00;;;;;18.01;44.71;101111.34;2054800;28;46586;-64
2022/09/23 02:33:56;;;;;;;;;13.80;13.80;;;;;18.01;44.70;101115.84;2052798;28;47642;-65
2022/09/23 02:35:17;;;;;;;;;14.60;13.40;;;;;18.01;44.93;101105.97;2053820;28;47768;-64
2022/09/23 02:36:28;;;;;;;;;13.00;13.00;;;;;18.00;44.71;101114.09;2056240;28;47738;-65
2022/09/23 02:37:50;;;;;;;;;12.60;11.40;;;;;18.00;44.92;101117.66;2050922;28;47534;-65
2022/09/23 02:39:00;;;;;;;;;15.00;12.80;;;;;18.01;44.67;101113.16;2059635;28;48046;-65
2022/09/23 02:40:22;;;;;;;;;12.00;11.60;;;;;18.00;45.24;101111.41;2054226;28;47866;-65
2022/09/23 02:41:26;;;;;;;;;13.60;12.80;;;;;18.00;44.96;101101.53;2054305;28;47134;-66
2022/09/23 02:42:40;;;;;;;;;12.40;12.40;;;;;18.00;44.86;101101.53;2046146;28;47696;-64
2022/09/23 02:43:55;;;;;;;;;13.80;13.40;;;;;18.01;45.04;101102.41;2047250;28;47708;-65
2022/09/23 02:44:57;;;;;;;;;13.80;13.00;;;;;18.01;45.09;101102.41;2053614;28;47210;-65
2022/09/23 02:45:59;;;;;;;;;19.60;17.80;;;;;18.01;45.11;101099.72;2054264;28;48338;-66
2022/09/23 02:46:59;;;;;;;;;15.60;14.60;;;;;18.00;45.05;101106.91;2052746;28;47836;-65
2022/09/23 02:48:23;;;;;;;;;13.75;13.50;;;;;18.00;44.96;101106.91;2051164;28;47914;-63
2022/09/23 02:49:27;;;;;;;;;15.00;15.00;;;;;18.00;45.19;101112.28;2053594;28;48211;-64
2022/09/23 02:50:29;;;;;;;;;11.00;11.00;;;;;18.02;44.94;101098.78;2054893;28;47658;-64
2022/09/23 02:51:33;;;;;;;;;15.60;14.80;;;;;18.01;44.92;101097.03;2045490;28;47602;-64
2022/09/23 02:52:36;;;;;;;;;9.40;9.40;;;;;18.03;45.14;101096.03;2047171;28;48205;-65
2022/09/23 02:53:37;;;;;;;;;13.20;13.20;;;;;18.03;45.22;101101.38;2068557;28;47571;-64
2022/09/23 02:54:38;;;;;;;;;14.00;14.00;;;;;18.02;45.16;101088.91;2077987;28;47420;-66
2022/09/23 02:55:40;;;;;;;;;15.00;14.00;;;;;18.02;45.20;101094.28;2078862;28;48140;-65
2022/09/23 02:56:40;;;;;;;;;13.80;13.00;;;;;18.02;45.33;101094.28;2080038;28;47822;-65
2022/09/23 02:57:41;;;;;;;;;13.75;12.00;;;;;18.01;45.12;101088.97;2078868;28;47779;-65
2022/09/23 02:58:42;;;;;;;;;14.00;14.00;;;;;18.02;45.16;101094.28;2081631;28;47642;-65
2022/09/23 02:59:43;;;;;;;;;12.80;12.80;;;;;18.02;45.23;101091.59;2078733;28;47550;-65
2022/09/23 03:01:01;;;;;;;;;8.00;8.00;;;;;18.02;45.18;101091.59;2070595;28;46984;-66
2022/09/23 03:02:15;;;;;;;;;14.40;14.40;;;;;18.03;45.02;101090.66;2076251;28;47607;-63
2022/09/23 03:03:35;;;;;;;;;13.40;13.40;;;;;18.02;44.87;101096.97;2083894;28;48145;-65
2022/09/23 03:05:07;;;;;;;;;12.20;12.20;;;;;18.03;45.17;101095.16;2095078;28;47233;-65
2022/09/23 03:06:29;;;;;;;;;12.00;11.20;;;;;18.04;44.92;101091.53;2080459;28;47956;-65
2022/09/23 03:07:54;;;;;;;;;13.00;13.00;;;;;18.03;44.85;101092.47;2074837;28;47440;-65
2022/09/23 03:09:07;;;;;;;;;17.80;13.80;;;;;18.03;44.88;101087.09;2073962;28;46815;-64
2022/09/23 03:10:24;;;;;;;;;15.00;15.00;;;;;18.02;45.16;101085.34;2078314;28;47418;-64
2022/09/23 03:11:25;;;;;;;;;15.00;15.00;;;;;18.01;44.90;101083.63;2071971;28;45862;-65
2022/09/23 03:12:38;;;;;;;;;11.00;9.50;;;;;18.01;44.85;101091.66;2077598;28;47945;-65
2022/09/23 03:13:45;;;;;;;;;11.60;11.60;;;;;18.00;45.02;101085.44;2084185;28;47487;-64
2022/09/23 03:15:07;;;;;;;;;13.20;13.20;;;;;17.99;45.30;101086.38;2087621;28;47352;-65
2022/09/23 03:16:28;;;;;;;;;13.00;13.00;;;;;18.00;45.17;101089.94;2081759;28;47418;-64
2022/09/23 03:17:29;;;;;;;;;13.20;13.20;;;;;17.99;45.13;101088.19;2078670;28;47413;-65
2022/09/23 03:18:41;;;;;;;;;13.25;13.25;;;;;17.98;44.80;101078.41;2086863;28;47969;-65
2022/09/23 03:19:47;;;;;;;;;11.60;11.60;;;;;17.98;45.02;101081.06;2082857;28;46460;-65
2022/09/23 03:20:54;;;;;;;;;14.80;12.40;;;;;17.97;44.90;101087.41;2083083;28;47827;-66
2022/09/23 03:22:09;;;;;;;;;12.00;11.80;;;;;17.97;44.79;101084.72;2085453;28;47518;-66
2022/09/23 03:23:13;;;;;;;;;14.80;14.20;;;;;17.97;44.73;101082.91;2077706;28;47370;-64
2022/09/23 03:24:14;;;;;;;;;12.00;11.00;;;;;17.96;44.89;101081.16;2079275;28;48144;-64
2022/09/23 03:25:20;;;;;;;;;10.80;10.80;;;;;17.96;44.81;101078.47;2084764;28;47770;-65
2022/09/23 03:26:30;;;;;;;;;13.00;11.40;;;;;17.96;45.12;101081.16;2086264;28;48312;-66
2022/09/23 03:27:33;;;;;;;;;13.60;13.60;;;;;17.96;44.68;101086.53;2082311;28;47590;-64
2022/09/23 03:28:36;;;;;;;;;12.40;12.40;;;;;17.97;44.83;101082.03;2071061;28;48088;-64
2022/09/23 03:29:37;;;;;;;;;9.60;9.60;;;;;17.97;44.74;101082.03;2077112;28;47616;-65
2022/09/23 03:30:39;;;;;;;;;10.50;10.50;;;;;17.97;44.75;101084.72;2087619;28;47890;-65
2022/09/23 03:31:41;;;;;;;;;12.40;10.80;;;;;17.97;44.73;101082.03;2081055;28;47088;-65
2022/09/23 03:32:44;;;;;;;;;15.80;15.80;;;;;17.97;44.57;101087.41;2079151;28;48334;-63
2022/09/23 03:33:55;;;;;;;;;11.40;11.00;;;;;17.98;44.73;101083.75;2081233;28;46704;-65
2022/09/23 03:34:59;;;;;;;;;11.60;11.60;;;;;17.98;44.57;101086.44;2079105;28;47802;-64
2022/09/23 03:37:57;;;;;;;;;10.20;9.60;;;;;17.99;44.72;101088.19;2078786;28;47604;-64
2022/09/23 03:39:04;;;;;;;;;11.20;11.20;;;;;17.99;44.41;101081.00;2065585;28;47043;-64
2022/09/23 03:40:10;;;;;;;;;12.00;11.00;;;;;17.98;44.63;101079.25;2067897;28;48035;-64
2022/09/23 03:41:15;;;;;;;;;13.60;13.00;;;;;17.97;44.43;101085.56;2077695;28;47671;-66
2022/09/23 03:42:21;;;;;;;;;13.00;11.80;;;;;17.96;44.81;101081.16;2067717;28;48017;-64
2022/09/23 03:43:21;;;;;;;;;12.00;12.00;;;;;17.96;44.47;101091.03;2071417;28;45342;-65
2022/09/23 03:44:22;;;;;;;;;9.00;7.25;;;;;17.96;44.68;101080.28;2066207;28;48014;-64
2022/09/23 03:45:28;;;;;;;;;10.75;10.75;;;;;17.98;44.65;101089.13;2068575;28;47573;-64
2022/09/23 03:46:29;;;;;;;;;16.80;16.20;;;;;17.97;44.67;101080.22;2079453;28;47694;-65
2022/09/23 03:47:30;;;;;;;;;23.25;23.25;;;;;17.97;44.56;101085.56;2077862;28;46654;-64
2022/09/23 03:48:30;;;;;;;;;15.00;14.00;;;;;17.96;45.03;101089.22;2079543;28;47569;-64
2022/09/23 03:49:35;;;;;;;;;14.25;13.00;;;;;17.96;44.89;101086.53;2077295;28;47914;-65
2022/09/23 03:50:38;;;;;;;;;11.40;11.40;;;;;17.96;44.31;101094.59;2076827;28;48333;-65
2022/09/23 03:51:38;;;;;;;;;13.00;12.00;;;;;17.97;44.57;101092.75;2078329;28;48184;-66
2022/09/23 03:52:39;;;;;;;;;12.25;11.00;;;;;17.96;44.44;101091.91;2079987;28;47821;-66
2022/09/23 03:53:39;;;;;;;;;10.75;10.75;;;;;17.96;44.60;101093.72;2078207;28;47227;-65
2022/09/23 03:54:39;;;;;;;;;11.00;11.00;;;;;17.97;44.36;101100.81;2079772;28;47051;-64
2022/09/23 03:55:40;;;;;;;;;11.25;11.25;;;;;17.94;44.98;101097.34;2079096;28;47667;-66
2022/09/23 03:56:40;;;;;;;;;11.50;11.50;;;;;17.94;44.66;101096.47;2079870;28;47654;-66
2022/09/23 03:57:41;;;;;;;;;8.50;8.50;;;;;17.93;44.72;101103.66;2076751;28;48042;-64
2022/09/23 03:58:42;;;;;;;;;11.75;11.75;;;;;17.92;44.53;101093.00;2078359;28;47535;-64
2022/09/23 03:59:43;;;;;;;;;10.60;10.60;;;;;17.92;44.65;101093.84;2077411;28;47551;-65
2022/09/23 04:00:43;;;;;;;;;13.00;12.00;;;;;17.92;44.86;101090.31;2079730;28;47358;-65
2022/09/23 04:01:44;;;;;;;;;10.50;10.50;;;;;17.92;44.63;101090.31;2078209;28;47185;-65
2022/09/23 04:02:45;;;;;;;;;12.20;10.20;;;;;17.92;44.69;101088.50;2080024;28;47704;-64
2022/09/23 04:03:45;;;;;;;;;11.25;10.75;;;;;17.92;44.60;101093.00;2077583;28;47298;-64
2022/09/23 04:04:46;;;;;;;;;9.50;9.50;;;;;17.91;44.31;101086.75;2079609;28;47291;-66
2022/09/23 04:05:47;;;;;;;;;9.75;9.75;;;;;17.92;44.71;101095.69;2076019;28;46948;-64
2022/09/23 04:06:47;;;;;;;;;11.00;10.00;;;;;17.92;44.56;101088.50;2067761;28;47329;-65
2022/09/23 04:07:49;;;;;;;;;10.75;10.75;;;;;17.92;44.55;101088.50;2070518;28;47874;-64
2022/09/23 04:08:50;;;;;;;;;10.80;10.80;;;;;17.92;44.45;101091.19;2078502;28;47617;-65
2022/09/23 04:09:51;;;;;;;;;12.00;10.25;;;;;17.93;44.67;101086.69;2078940;28;47139;-65
2022/09/23 04:10:51;;;;;;;;;13.20;13.20;;;;;17.91;44.61;101085.84;2078859;28;47265;-66
2022/09/23 04:11:52;;;;;;;;;12.00;11.00;;;;;17.91;44.73;101088.53;2071695;28;47604;-65
2022/09/23 04:12:53;;;;;;;;;13.60;9.80;;;;;17.90;44.61;101097.53;2071969;28;47721;-65
2022/09/23 04:13:57;;;;;;;;;9.00;9.00;;;;;17.89;44.79;101096.66;2076360;28;46254;-66
2022/09/23 04:14:57;;;;;;;;;9.20;9.20;;;;;17.88;44.72;101097.59;2071901;28;47622;-66
2022/09/23 04:15:58;;;;;;;;;11.00;10.75;;;;;17.90;44.81;101089.47;2045916;28;47295;-64
2022/09/23 04:16:58;;;;;;;;;10.00;10.00;;;;;17.88;44.86;101097.59;2045311;28;47315;-65
2022/09/23 04:17:58;;;;;;;;;11.75;10.50;;;;;17.88;44.63;101105.66;2075548;28;47648;-65
2022/09/23 04:18:59;;;;;;;;;10.50;10.50;;;;;17.88;44.75;101097.59;2077788;28;47459;-65
2022/09/23 04:19:59;;;;;;;;;12.00;12.00;;;;;17.87;44.68;101103.91;2079271;28;47109;-65
2022/09/23 04:20:59;;;;;;;;;9.50;9.00;;;;;17.86;44.61;101096.81;2078666;28;47407;-64
2022/09/23 04:22:00;;;;;;;;;10.75;10.25;;;;;17.87;44.91;101105.75;2076115;28;48112;-64
2022/09/23 04:23:00;;;;;;;;;11.50;10.75;;;;;17.87;44.96;101103.06;2077310;28;46937;-65
2022/09/23 04:24:02;;;;;;;;;13.00;12.00;;;;;17.87;44.73;101103.06;2071449;28;47787;-64
2022/09/23 04:25:03;;;;;;;;;5.60;5.60;;;;;17.84;44.81;101100.50;2080960;28;46167;-65
2022/09/23 04:26:04;;;;;;;;;11.00;11.00;;;;;17.84;45.01;101096.00;2086785;28;48062;-65
2022/09/23 04:27:05;;;;;;;;;11.40;11.40;;;;;17.84;44.94;101092.47;2078339;28;46186;-65
2022/09/23 04:28:05;;;;;;;;;10.75;9.50;;;;;17.84;44.61;101079.03;2079224;28;47455;-63
2022/09/23 04:29:06;;;;;;;;;12.00;10.75;;;;;17.82;44.59;101087.16;2078249;28;48107;-64
2022/09/23 04:30:07;;;;;;;;;10.20;10.20;;;;;17.82;44.82;101091.66;2074285;28;47641;-64
2022/09/23 04:31:08;;;;;;;;;12.00;12.00;;;;;17.81;44.82;101090.78;2073217;28;47540;-65
2022/09/23 04:32:09;;;;;;;;;13.50;12.25;;;;;17.80;45.11;101088.19;2079209;28;47540;-65
2022/09/23 04:33:10;;;;;;;;;11.25;11.25;;;;;17.79;45.03;101092.69;2078247;28;47972;-65
2022/09/23 04:34:11;;;;;;;;;11.25;10.50;;;;;17.79;45.08;101095.38;2078348;28;47462;-65
2022/09/23 04:35:11;;;;;;;;;10.80;10.00;;;;;17.79;45.05;101095.38;2078687;28;48039;-64
2022/09/23 04:36:12;;;;;;;;;12.00;11.50;;;;;17.79;44.78;101089.13;2076805;28;47310;-64
2022/09/23 04:37:12;;;;;;;;;10.00;10.00;;;;;17.78;45.05;101088.22;2076044;28;47279;-65
2022/09/23 04:38:13;;;;;;;;;13.50;11.00;;;;;17.77;44.62;101091.84;2065715;28;46001;-64
2022/09/23 04:39:15;;;;;;;;;12.50;11.00;;;;;17.77;44.51;101093.66;2066044;28;47299;-64
2022/09/23 04:40:15;;;;;;;;;11.80;10.00;;;;;17.77;44.67;101097.22;2079287;28;48109;-64
2022/09/23 04:41:17;;;;;;;;;11.00;10.00;;;;;17.77;44.86;101085.63;2078200;28;47002;-65
2022/09/23 04:42:17;;;;;;;;;9.40;8.60;;;;;17.77;44.88;101090.97;2063063;28;47627;-64
2022/09/23 04:43:22;;;;;;;;;10.25;9.50;;;;;17.78;44.98;101092.72;2060119;28;48010;-64
2022/09/23 04:44:23;;;;;;;;;11.80;10.40;;;;;17.77;45.22;101085.63;2061171;28;47302;-66
2022/09/23 04:45:23;;;;;;;;;11.00;11.00;;;;;17.77;44.96;101090.97;2063333;28;47385;-64
2022/09/23 04:46:24;;;;;;;;;10.75;10.75;;;;;17.76;44.79;101087.44;2071640;28;46069;-64
2022/09/23 04:47:25;;;;;;;;;7.50;7.00;;;;;17.75;44.60;101087.50;2069552;28;47139;-65
2022/09/23 04:48:26;;;;;;;;;11.75;10.75;;;;;17.75;44.68;101085.69;2061028;28;47822;-65
2022/09/23 04:49:26;;;;;;;;;11.60;11.60;;;;;17.75;44.73;101085.69;2060909;28;47950;-63
2022/09/23 04:50:27;;;;;;;;;12.25;11.50;;;;;17.75;44.73;101080.31;2079497;28;46979;-64
2022/09/23 04:51:27;;;;;;;;;13.25;10.25;;;;;17.76;44.84;101078.50;2068980;28;47496;-64
2022/09/23 04:52:30;;;;;;;;;10.75;10.75;;;;;17.76;44.63;101078.50;2069874;28;47687;-63
2022/09/23 04:53:30;;;;;;;;;11.00;9.20;;;;;17.77;44.58;101082.94;2060575;28;46160;-65
2022/09/23 04:54:31;;;;;;;;;11.00;11.00;;;;;17.74;44.76;101083.94;2075692;28;47454;-64
2022/09/23 04:55:32;;;;;;;;;10.00;8.75;;;;;17.75;44.67;101084.81;2085517;28;47136;-66
2022/09/23 04:56:32;;;;;;;;;11.00;11.00;;;;;17.73;44.80;101084.88;2079325;28;47291;-66
2022/09/23 04:57:33;;;;;;;;;10.75;10.75;;;;;17.72;44.67;101083.16;2076048;28;47824;-65
2022/09/23 04:58:34;;;;;;;;;9.00;8.50;;;;;17.71;44.92;101083.22;2072084;28;47777;-63
2022/09/23 04:59:36;;;;;;;;;10.20;8.40;;;;;17.69;44.94;101077.94;2086751;28;46418;-66
2022/09/23 05:00:36;;;;;;;;;9.00;9.00;;;;;17.69;44.77;101079.75;2085916;28;47422;-65
2022/09/23 05:01:37;;;;;;;;;11.75;10.75;;;;;17.68;45.09;101078.84;2077821;28;47957;-64
2022/09/23 05:02:45;;;;;;;;;8.75;8.75;;;;;17.68;44.88;101076.16;2078631;28;47609;-63
2022/09/23 05:03:45;;;;;;;;;11.20;10.20;;;;;17.68;44.89;101078.84;2076324;28;48405;-64
2022/09/23 05:04:46;;;;;;;;;7.50;7.50;;;;;17.68;44.92;101069.91;2071396;28;48050;-64
2022/09/23 05:05:46;;;;;;;;;10.00;10.00;;;;;17.68;44.61;101075.28;2077710;28;47317;-64